Time;durP1;ratioP1;P1;durP2;ratioP2;P2;SDS_P1;SDS_P2;PMS_P1;PMS_P2;Temp;Humidity;BMP_temperature;BMP_pressure;BME280_temperature;BME280_humidity;BME280_pressure;Samples;Min_cycle;Max_cycle;Signal;HPM_P1;HPM_P2
2022/07/30 00:00:36;;;;;;;8.07;5.13;;;20.40;99.90;;;20.85;71.50;101775.84;5054528;28;20053;-62
2022/07/30 00:03:05;;;;;;;9.07;5.40;;;20.40;99.90;;;20.81;71.47;101777.72;5054400;28;20107;-61
2022/07/30 00:05:33;;;;;;;12.75;4.95;;;20.30;99.90;;;20.41;71.74;101753.03;5053005;28;20299;-61
2022/07/30 00:08:01;;;;;;;13.13;5.97;;;20.20;99.90;;;20.60;71.77;101773.03;5054081;28;20076;-61
2022/07/30 00:10:30;;;;;;;12.02;5.90;;;20.10;99.90;;;20.60;72.19;101776.63;5053961;28;20155;-61
2022/07/30 00:12:58;;;;;;;9.50;5.65;;;20.10;99.90;;;20.30;72.08;101725.59;5052927;28;20041;-61
2022/07/30 00:15:32;;;;;;;10.63;5.88;;;20.10;99.90;;;20.51;71.82;101752.72;5054212;28;20400;-61
2022/07/30 00:18:02;;;;;;;9.50;5.82;;;20.10;99.90;;;20.59;71.82;101766.81;5053848;28;20041;-61
2022/07/30 00:20:31;;;;;;;;;;;20.10;99.90;;;20.41;72.06;101750.34;5052866;28;20083;-61
2022/07/30 00:23:06;;;;;;;10.00;5.72;;;20.10;99.90;;;20.51;71.83;101758.09;5053619;28;19921;-61
2022/07/30 00:25:37;;;;;;;12.13;5.47;;;20.00;99.90;;;20.56;71.90;101764.19;5053908;28;20045;-61
2022/07/30 00:28:05;;;;;;;11.02;5.50;;;20.10;99.90;;;20.26;71.80;101714.09;5053905;28;20040;-61
2022/07/30 00:30:34;;;;;;;8.80;5.55;;;20.00;99.90;;;20.25;72.39;101755.28;5053463;28;20072;-61
2022/07/30 00:33:04;;;;;;;12.38;6.03;;;19.80;99.90;;;19.83;72.76;101683.13;5053838;28;20071;-61
2022/07/30 00:35:35;;;;;;;14.68;6.63;;;19.70;99.90;;;20.13;72.99;101744.03;5053739;28;20127;-62
2022/07/30 00:38:04;;;;;;;9.63;6.05;;;19.60;99.90;;;20.09;73.25;101748.56;5052330;28;20083;-61
2022/07/30 00:40:33;;;;;;;10.88;6.40;;;19.60;99.90;;;19.95;73.40;101745.44;5069018;28;20372;-61
2022/07/30 00:43:01;;;;;;;9.13;6.90;;;19.50;99.90;;;18.38;73.68;101476.19;5052203;28;20578;-61
2022/07/30 00:45:29;;;;;;;12.07;7.50;;;19.40;99.90;;;19.82;74.14;101722.56;5053230;28;20101;-61
2022/07/30 00:48:00;;;;;;;10.40;6.35;;;19.40;99.90;;;19.96;74.33;101747.19;5053118;28;20445;-61
2022/07/30 00:50:30;;;;;;;8.57;6.75;;;19.50;99.90;;;19.83;74.13;101745.78;5053219;28;20403;-61
2022/07/30 00:52:59;;;;;;;9.13;6.75;;;19.40;99.90;;;19.66;74.10;101718.53;5053277;28;20526;-61
2022/07/30 00:55:27;;;;;;;13.13;7.50;;;19.30;99.90;;;19.65;74.26;101731.06;5053554;28;20443;-61
2022/07/30 00:57:56;;;;;;;9.55;7.40;;;19.20;99.90;;;19.69;74.38;101743.47;5051988;28;20215;-61
2022/07/30 01:00:24;;;;;;;12.13;6.95;;;19.20;99.90;;;19.66;74.74;101742.69;5051722;28;20049;-59
2022/07/30 01:02:53;;;;;;;12.55;7.32;;;19.20;99.90;;;19.35;75.05;101712.25;5052992;28;20040;-60
2022/07/30 01:05:22;;;;;;;11.73;8.57;;;19.10;99.90;;;19.11;74.89;101669.94;5052049;28;20055;-59
2022/07/30 01:07:51;;;;;;;9.43;6.30;;;19.00;99.90;;;19.57;75.09;101740.25;5053284;28;20044;-59
2022/07/30 01:10:20;;;;;;;6.73;6.03;;;19.10;99.90;;;19.60;75.35;101738.38;5051919;28;20053;-60
2022/07/30 01:12:51;;;;;;;8.05;5.70;;;19.10;99.90;;;19.67;75.77;101734.59;5053131;28;20048;-60
2022/07/30 01:15:20;;;;;;;6.35;5.75;;;19.10;99.90;;;19.58;75.99;101755.44;5053543;28;20048;-59
2022/07/30 01:17:50;;;;;;;10.45;6.80;;;19.20;99.90;;;19.55;76.19;101740.28;5051801;28;20049;-59
2022/07/30 01:20:27;;;;;;;11.50;7.13;;;19.10;99.90;;;19.41;76.38;101715.66;5053086;28;20106;-59
2022/07/30 01:23:07;;;;;;;8.65;6.78;;;19.00;99.90;;;19.44;76.54;101731.66;5052025;28;20087;-59
2022/07/30 01:25:59;;;;;;;12.52;7.53;;;19.00;99.90;;;19.43;76.69;101726.34;5051961;28;20517;-59
2022/07/30 01:28:33;;;;;;;11.20;7.32;;;19.00;99.90;;;19.44;76.57;101726.28;5085431;28;20049;-60
2022/07/30 01:31:03;;;;;;;12.18;7.00;;;19.00;99.90;;;19.35;76.29;101710.44;5052799;28;20045;-59
2022/07/30 01:33:35;;;;;;;12.63;8.05;;;19.00;99.90;;;19.31;76.56;101702.47;5051746;28;20459;-60
2022/07/30 01:36:06;;;;;;;8.50;7.15;;;18.90;99.90;;;19.45;76.71;101725.34;5068518;28;20056;-60
2022/07/30 01:38:36;;;;;;;10.38;7.40;;;19.00;99.90;;;19.46;76.67;101723.56;5068499;28;20042;-60
2022/07/30 01:41:08;;;;;;;11.00;7.50;;;19.00;99.90;;;19.34;76.46;101713.16;5051488;28;20083;-60
2022/07/30 01:43:37;;;;;;;12.63;7.85;;;19.00;99.90;;;19.33;76.54;101722.13;5051788;28;20383;-60
2022/07/30 01:46:07;;;;;;;12.07;7.07;;;18.90;99.90;;;19.40;76.25;101732.66;5068221;28;20045;-60
2022/07/30 01:48:43;;;;;;;11.35;7.70;;;18.90;99.90;;;19.38;75.93;101730.94;5051628;28;20049;-60
2022/07/30 01:51:13;;;;;;;10.68;7.18;;;18.90;99.90;;;19.27;75.91;101723.16;5052588;28;20041;-60
2022/07/30 01:53:48;;;;;;;9.30;7.22;;;18.80;99.90;;;19.29;76.02;101715.06;5052575;28;20041;-60
2022/07/30 01:56:23;;;;;;;12.52;7.43;;;18.90;99.90;;;19.17;76.29;101710.88;5051655;28;20056;-60
2022/07/30 01:58:55;;;;;;;12.15;7.97;;;18.80;99.90;;;19.15;76.57;101703.78;5053503;28;20049;-60
2022/07/30 02:01:26;;;;;;;8.57;7.38;;;18.80;99.90;;;19.15;76.65;101723.47;5055204;28;20060;-60
2022/07/30 02:04:04;;;;;;;11.73;7.50;;;18.70;99.90;;;19.09;76.84;101726.28;5089160;28;20499;-60
2022/07/30 02:06:39;;;;;;;15.00;7.60;;;18.70;99.90;;;19.11;76.75;101745.03;5072168;28;20406;-60
2022/07/30 02:09:11;;;;;;;12.65;7.90;;;18.60;99.90;;;19.07;76.86;101729.94;5055503;28;20048;-60
2022/07/30 02:14:39;;;;;;;10.55;7.68;;;18.60;99.90;;;19.10;77.09;101744.16;5071695;28;19927;-60
2022/07/30 02:17:12;;;;;;;10.60;7.75;;;18.60;99.90;;;18.94;77.58;101726.69;5071623;28;20052;-60
2022/07/30 02:19:53;;;;;;;11.77;7.30;;;18.50;99.90;;;19.06;77.64;101739.81;5071813;28;20072;-60
2022/07/30 02:22:25;;;;;;;11.68;7.35;;;18.50;99.90;;;19.01;78.20;101741.69;5055998;28;20453;-60
2022/07/30 02:24:55;;;;;;;13.95;7.68;;;18.50;99.90;;;19.05;79.15;101747.88;5055953;28;20051;-60
2022/07/30 02:27:31;;;;;;;12.20;7.47;;;18.50;99.90;;;18.18;78.50;101574.91;5055940;28;20048;-60
2022/07/30 02:30:03;;;;;;;13.60;7.72;;;18.60;99.90;;;18.95;78.67;101703.44;5054869;28;20044;-60
2022/07/30 02:32:38;;;;;;;12.50;7.10;;;18.60;99.90;;;19.18;77.88;101735.91;5054574;28;20048;-60
2022/07/30 02:35:13;;;;;;;8.95;7.03;;;18.60;99.90;;;19.12;77.47;101733.41;5054721;28;20072;-60
2022/07/30 02:37:43;;;;;;;9.90;7.78;;;18.60;99.90;;;19.10;77.45;101733.44;5071523;28;20049;-60
2022/07/30 02:40:16;;;;;;;5.25;4.75;;;18.60;99.90;;;19.01;75.42;101738.16;5054278;28;20051;-60
2022/07/30 02:42:50;;;;;;;4.22;3.92;;;18.60;99.90;;;18.68;74.54;101727.31;5054772;28;20107;-60
2022/07/30 02:45:24;;;;;;;9.05;5.80;;;18.40;99.90;;;18.61;75.34;101736.44;5054995;28;20048;-60
2022/07/30 02:47:59;;;;;;;4.40;4.00;;;18.20;99.90;;;18.16;75.57;101651.72;5054236;28;20102;-60
2022/07/30 02:50:28;;;;;;;4.03;3.67;;;18.20;99.90;;;18.46;75.48;101734.13;5054541;28;20044;-60
2022/07/30 02:52:59;;;;;;;5.43;4.93;;;18.10;99.90;;;18.18;76.35;101707.94;5054416;28;20499;-60
2022/07/30 02:55:34;;;;;;;5.05;4.72;;;17.90;99.90;;;18.08;76.88;101688.50;5054087;28;20049;-60
2022/07/30 02:58:06;;;;;;;6.43;5.93;;;17.90;99.90;;;18.35;77.33;101733.41;5071009;28;20402;-60
2022/07/30 03:00:36;;;;;;;5.82;5.32;;;17.90;99.90;;;18.31;77.24;101721.00;5054184;28;20057;-60
2022/07/30 03:03:07;;;;;;;6.57;5.80;;;17.90;99.90;;;18.31;77.53;101729.06;5054352;28;20045;-60
2022/07/30 03:05:39;;;;;;;5.95;5.45;;;17.80;99.90;;;18.12;77.42;101708.94;5053957;28;20049;-60
2022/07/30 03:08:12;;;;;;;7.97;6.30;;;17.80;99.90;;;18.25;76.85;101721.19;5070982;28;20441;-60
2022/07/30 03:10:48;;;;;;;6.85;6.25;;;17.80;99.90;;;18.19;76.98;101728.44;5052994;28;20068;-60
2022/07/30 03:13:20;;;;;;;5.40;4.90;;;17.80;99.90;;;18.14;77.53;101709.78;5054155;28;20456;-60
2022/07/30 03:15:52;;;;;;;6.00;5.50;;;17.80;99.90;;;18.19;77.40;101710.59;5055342;28;20071;-60
2022/07/30 03:18:22;;;;;;;7.68;6.53;;;17.80;99.90;;;18.06;76.77;101698.38;5054254;28;20486;-60
2022/07/30 03:20:55;;;;;;;5.05;4.65;;;17.80;99.90;;;18.11;77.43;101770.59;5055198;28;20042;-59
2022/07/30 03:23:25;;;;;;;5.20;4.75;;;17.70;99.90;;;18.13;77.08;101733.94;5055222;28;20044;-60
2022/07/30 03:26:00;;;;;;;3.80;3.60;;;17.70;99.90;;;17.93;77.26;101740.59;5053915;28;20053;-60
2022/07/30 03:28:33;;;;;;;3.40;3.20;;;17.60;99.90;;;17.66;77.21;101686.75;5054080;28;20055;-60
2022/07/30 03:31:03;;;;;;;3.55;3.15;;;17.50;99.90;;;17.87;77.41;101723.78;5055039;28;20096;-60
2022/07/30 03:33:33;;;;;;;3.58;3.38;;;17.50;99.90;;;17.85;77.93;101729.16;5053468;28;20052;-60
2022/07/30 03:36:08;;;;;;;3.60;3.35;;;17.40;99.90;;;17.75;78.46;101716.00;5053301;28;20063;-60
2022/07/30 03:38:37;;;;;;;;;;;17.40;99.90;;;17.01;78.94;101589.06;5055133;28;20041;-60
2022/07/30 03:41:08;;;;;;;4.05;3.75;;;17.40;99.90;;;17.87;78.83;101742.50;5053554;28;19928;-59
2022/07/30 03:43:39;;;;;;;3.50;3.20;;;17.40;99.90;;;17.83;78.50;101741.69;5070312;28;20051;-60
2022/07/30 03:46:11;;;;;;;3.28;3.08;;;17.40;99.90;;;17.90;78.08;101745.16;5053452;28;20053;-60
2022/07/30 03:48:44;;;;;;;4.72;4.20;;;17.50;99.90;;;17.87;78.35;101740.72;5053464;28;20394;-60
2022/07/30 03:51:13;;;;;;;4.43;4.03;;;17.40;99.90;;;17.94;78.17;101746.84;5054594;28;20095;-60
2022/07/30 03:53:43;;;;;;;3.75;3.33;;;17.50;99.90;;;17.69;79.20;101700.94;5052991;28;20048;-60
2022/07/30 03:56:30;;;;;;;4.55;3.88;;;17.40;99.90;;;17.99;79.18;101747.63;5054281;28;20055;-60
2022/07/30 03:59:07;;;;;;;3.63;3.42;;;17.50;99.90;;;17.67;79.58;101701.91;5053157;28;20045;-60
2022/07/30 04:01:39;;;;;;;4.50;4.05;;;17.50;99.90;;;17.60;79.32;101713.63;5086584;28;20061;-60
2022/07/30 04:04:16;;;;;;;3.70;3.40;;;17.40;99.90;;;17.77;79.04;101746.28;5052790;28;20057;-60
2022/07/30 04:06:45;;;;;;;4.03;3.63;;;17.30;99.90;;;17.71;79.53;101733.91;5052988;28;20110;-60
2022/07/30 04:09:15;;;;;;;3.22;3.03;;;17.30;99.90;;;17.75;79.84;101750.81;5053079;28;20103;-60
2022/07/30 04:11:44;;;;;;;6.00;3.97;;;17.30;99.90;;;17.71;79.82;101731.22;5052905;28;20045;-59
2022/07/30 04:14:18;;;;;;;3.45;3.25;;;17.40;99.90;;;17.84;79.84;101758.66;5052789;28;20085;-59
2022/07/30 04:16:56;;;;;;;4.40;4.10;;;17.40;99.90;;;17.57;79.24;101700.31;5052868;28;20465;-60
2022/07/30 04:19:31;;;;;;;5.00;4.60;;;17.40;99.90;;;17.98;79.67;101760.13;5069588;28;20052;-60
2022/07/30 04:22:02;;;;;;;4.82;4.40;;;17.50;99.90;;;17.41;80.03;101645.31;5053756;28;20123;-60
2022/07/30 04:24:32;;;;;;;4.40;4.00;;;17.50;99.90;;;17.95;80.29;101743.25;5052655;28;20122;-60
2022/07/30 04:27:02;;;;;;;3.43;3.23;;;17.50;99.90;;;17.74;80.58;101717.81;5069256;28;20102;-60
2022/07/30 04:29:33;;;;;;;4.32;4.03;;;17.50;99.90;;;17.97;80.73;101753.00;5069289;28;20041;-59
2022/07/30 04:32:04;;;;;;;;;;;17.50;99.90;;;17.77;80.26;101711.47;5086638;28;20491;-60
2022/07/30 04:35:01;;;;;;;3.83;3.63;;;17.60;99.90;;;17.85;79.02;101742.53;5052552;28;20098;-59
2022/07/30 04:38:03;;;;;;;6.43;5.93;;;17.60;99.90;;;18.01;78.95;101753.81;5048385;28;20067;-60
2022/07/30 04:40:32;;;;;;;3.97;3.72;;;17.60;99.90;;;17.83;79.28;101730.09;5069052;28;20068;-59
2022/07/30 04:43:00;;;;;;;3.40;3.20;;;17.60;99.90;;;17.99;79.52;101758.31;5085887;28;20056;-60
2022/07/30 04:45:30;;;;;;;4.15;3.85;;;17.60;99.90;;;18.14;79.90;101767.84;5068791;28;20410;-59
2022/07/30 04:48:01;;;;;;;4.05;3.75;;;17.60;99.90;;;18.10;79.70;101756.31;5052402;28;20056;-60
2022/07/30 04:50:36;;;;;;;6.20;4.97;;;17.70;99.90;;;18.09;78.96;101751.88;5053667;28;20395;-60
2022/07/30 04:53:08;;;;;;;4.75;4.35;;;17.70;99.90;;;18.38;79.04;101770.88;5068941;28;20560;-60
2022/07/30 04:55:45;;;;;;;4.13;3.75;;;17.80;99.90;;;17.93;78.96;101695.09;5052202;28;20603;-60
2022/07/30 04:58:15;;;;;;;4.50;4.10;;;17.90;99.90;;;18.46;78.75;101768.94;5052131;28;20053;-60
2022/07/30 05:00:46;;;;;;;5.60;5.10;;;17.90;99.90;;;18.57;78.51;101768.69;5051743;28;20483;-60
2022/07/30 05:03:17;;;;;;;4.85;4.45;;;18.10;99.90;;;18.72;78.49;101771.00;5068437;28;20052;-60
2022/07/30 05:05:51;;;;;;;5.15;4.70;;;18.20;99.90;;;18.64;78.51;101738.19;5052185;28;20081;-60
2022/07/30 05:08:26;;;;;;;6.97;6.22;;;18.30;99.90;;;18.43;78.65;101685.06;5052078;28;20041;-60
2022/07/30 05:10:57;;;;;;;10.23;6.15;;;18.40;99.90;;;19.01;78.39;101778.38;5053268;28;20087;-60
2022/07/30 05:13:27;;;;;;;6.95;5.80;;;18.60;99.90;;;19.01;77.98;101762.28;5053293;28;20045;-60
2022/07/30 05:16:07;;;;;;;11.95;7.13;;;18.60;99.90;;;19.16;77.61;101780.69;5052026;28;20045;-60
2022/07/30 05:18:36;;;;;;;6.68;5.45;;;18.70;99.90;;;19.27;77.65;101766.06;5053384;28;20044;-60
2022/07/30 05:21:05;;;;;;;6.43;5.85;;;18.80;99.90;;;19.17;77.99;101744.88;5051829;28;20486;-60
2022/07/30 05:23:40;;;;;;;7.15;6.10;;;18.90;99.90;;;19.56;77.80;101778.75;5052001;28;20522;-60
2022/07/30 05:26:50;;;;;;;6.30;5.68;;;19.10;99.90;;;19.70;77.74;101784.63;5052181;28;20084;-60
2022/07/30 05:29:20;;;;;;;8.98;5.68;;;19.30;99.90;;;19.41;77.25;101698.66;5085456;28;20049;-60
2022/07/30 05:32:04;;;;;;;7.78;6.18;;;19.50;99.90;;;20.06;76.72;101802.41;5051738;28;20045;-60
2022/07/30 05:34:35;;;;;;;8.95;6.20;;;19.60;99.90;;;20.14;76.69;101796.81;5088629;28;20052;-60
2022/07/30 05:37:05;;;;;;;7.85;6.38;;;19.70;99.90;;;20.19;76.09;101776.97;5055962;28;20049;-61
2022/07/30 05:39:40;;;;;;;7.53;6.43;;;19.80;99.90;;;20.34;76.23;101803.38;5072605;28;20107;-61
2022/07/30 05:43:01;;;;;;;8.35;6.60;;;19.90;99.90;;;20.53;75.84;101796.56;5056328;28;20056;-61
2022/07/30 05:45:29;;;;;;;10.75;7.05;;;20.10;99.90;;;20.37;76.21;101776.44;5072496;28;20049;-60
2022/07/30 05:47:59;;;;;;;9.23;7.32;;;20.10;99.90;;;20.55;76.72;101813.53;5055654;28;20044;-60
2022/07/30 05:50:28;;;;;;;11.43;7.03;;;20.10;99.90;;;20.24;77.20;101742.81;5072611;28;20474;-60
2022/07/30 05:52:57;;;;;;;11.32;6.57;;;20.20;99.90;;;20.65;76.67;101804.22;5056860;28;20487;-61
2022/07/30 05:55:54;;;;;;;8.07;7.05;;;20.30;99.90;;;20.92;75.72;101812.38;5056716;28;20048;-61
2022/07/30 05:58:41;;;;;;;11.32;7.32;;;20.50;99.90;;;20.73;75.41;101749.34;5056394;28;20060;-60
2022/07/30 06:01:16;;;;;;;10.13;7.35;;;20.60;99.90;;;21.23;74.72;101808.69;5055022;28;20434;-60
2022/07/30 06:03:46;;;;;;;7.75;6.78;;;20.80;99.90;;;21.29;74.51;101804.91;5055326;28;20419;-61
2022/07/30 06:06:33;;;;;;;10.15;7.00;;;20.90;99.90;;;21.56;74.34;101812.88;5056715;28;20059;-61
2022/07/30 06:09:02;;;;;;;12.88;7.20;;;21.10;99.90;;;21.61;74.50;101790.31;5056513;28;20102;-61
2022/07/30 06:11:30;;;;;;;8.27;5.65;;;21.30;99.90;;;21.72;73.73;101809.69;5055189;28;20048;-61
2022/07/30 06:14:04;;;;;;;11.13;5.82;;;21.30;99.90;;;21.92;72.80;101802.69;5056440;28;20490;-60
2022/07/30 06:16:32;;;;;;;;;;;21.60;99.90;;;22.03;69.19;101813.94;5055543;28;20040;-60
2022/07/30 06:19:02;;;;;;;7.32;4.03;;;21.70;99.90;;;21.72;68.06;101759.38;5071777;28;19927;-61
2022/07/30 06:21:43;;;;;;;8.43;3.70;;;21.70;99.90;;;22.00;67.61;101816.75;5071795;28;20056;-61
2022/07/30 06:24:32;;;;;;;6.88;3.95;;;21.60;99.90;;;21.86;66.99;101810.97;5054991;28;20380;-61
2022/07/30 06:27:09;;;;;;;7.40;3.63;;;21.40;99.90;;;21.73;66.43;101776.41;5055024;28;20080;-62
2022/07/30 06:29:39;;;;;;;6.43;3.17;;;21.50;99.90;;;22.01;67.04;101818.50;5071655;28;20048;-61
2022/07/30 06:32:09;;;;;;;7.80;3.90;;;21.60;99.90;;;22.26;67.00;101822.06;5054760;28;20446;-60
2022/07/30 06:34:39;;;;;;;6.00;3.50;;;21.80;99.90;;;22.10;66.30;101772.38;5055894;28;20049;-61
2022/07/30 06:37:07;;;;;;;8.52;3.75;;;22.00;99.90;;;22.50;65.83;101831.03;5054572;28;20048;-61
2022/07/30 06:39:36;;;;;;;7.35;3.78;;;22.10;99.90;;;22.69;64.80;101824.03;5088285;28;20048;-61
2022/07/30 06:42:44;;;;;;;6.03;3.50;;;22.30;99.90;;;22.77;63.76;101803.00;5088109;28;20049;-61
2022/07/30 06:45:41;;;;;;;7.30;3.03;;;22.50;99.90;;;22.98;63.04;101812.06;5039241;28;20092;-61
2022/07/30 06:48:32;;;;;;;6.25;3.33;;;22.60;99.90;;;23.01;61.68;101831.75;5057861;28;20053;-61
2022/07/30 06:51:06;;;;;;;6.63;3.60;;;22.70;99.90;;;23.23;61.71;101819.09;5054731;28;20049;-61
2022/07/30 06:53:35;;;;;;;6.10;3.65;;;22.80;99.90;;;22.67;60.45;101749.47;5054320;28;20068;-61
2022/07/30 06:56:13;;;;;;;6.07;3.40;;;22.80;99.90;;;23.36;60.20;101808.72;5055757;28;20049;-61
2022/07/30 06:58:48;;;;;;;5.45;3.20;;;23.00;99.90;;;23.26;60.08;101801.91;5054436;28;20052;-61
2022/07/30 07:01:35;;;;;;;4.85;3.38;;;23.10;99.90;;;23.18;58.83;101825.63;5055463;28;20068;-61
2022/07/30 07:04:04;;;;;;;7.03;3.70;;;22.80;99.90;;;23.23;58.90;101823.63;5054095;28;20526;-61
2022/07/30 07:06:35;;;;;;;5.32;3.00;;;22.80;99.90;;;23.28;58.40;101819.81;5053895;28;20056;-61
2022/07/30 07:09:04;;;;;;;6.13;3.10;;;22.90;99.90;;;23.26;59.01;101826.22;5053722;28;20045;-61
2022/07/30 07:11:40;;;;;;;5.78;3.38;;;22.90;99.90;;;23.22;59.91;101838.06;5070781;28;20506;-61
2022/07/30 07:14:12;;;;;;;6.93;3.35;;;22.90;99.90;;;23.27;59.98;101825.25;5053786;28;20056;-61
2022/07/30 07:16:40;;;;;;;7.32;3.80;;;22.90;99.90;;;23.21;59.88;101768.78;5053718;28;20048;-61
2022/07/30 07:19:32;;;;;;;6.95;3.22;;;23.20;99.90;;;23.83;59.41;101845.34;5044557;28;20049;-61
2022/07/30 07:22:22;;;;;;;5.75;3.05;;;23.40;99.90;;;23.64;58.84;101801.16;5070732;28;20398;-61
2022/07/30 07:24:50;;;;;;;5.80;3.63;;;23.50;99.90;;;24.04;58.22;101844.44;5053544;28;20045;-61
2022/07/30 07:27:22;;;;;;;5.20;3.00;;;23.70;99.90;;;23.76;56.58;101822.25;5053967;28;20049;-61
2022/07/30 07:29:55;;;;;;;5.05;3.15;;;23.50;99.90;;;23.83;56.35;101847.16;5053749;28;20053;-59
2022/07/30 07:32:35;;;;;;;4.60;3.00;;;23.50;99.90;;;23.68;57.55;101815.41;5070735;28;20053;-59
2022/07/30 07:35:05;;;;;;;5.40;3.27;;;23.50;99.90;;;23.89;56.51;101845.09;5054906;28;20132;-58
2022/07/30 07:37:37;;;;;;;6.55;3.42;;;23.50;99.90;;;24.00;56.63;101842.78;5053535;28;20045;-59
2022/07/30 07:40:08;;;;;;;6.63;3.63;;;23.60;99.90;;;24.04;55.43;101846.28;5053564;28;20520;-60
2022/07/30 07:42:41;;;;;;;4.30;3.15;;;23.70;99.90;;;24.12;56.17;101847.69;5053458;28;20053;-63
2022/07/30 07:45:11;;;;;;;4.80;3.33;;;23.80;99.90;;;23.56;56.25;101730.38;5053566;28;20407;-59
2022/07/30 07:47:49;;;;;;;5.80;3.60;;;23.90;99.90;;;24.22;55.93;101837.34;5070186;28;20049;-59
2022/07/30 07:50:43;;;;;;;7.18;3.53;;;24.00;99.90;;;24.39;54.90;101850.97;5053446;28;20123;-59
2022/07/30 07:53:20;;;;;;;7.18;3.10;;;24.00;99.90;;;24.25;54.19;101825.50;5053258;28;20049;-59
2022/07/30 07:55:49;;;;;;;5.20;3.13;;;24.10;99.90;;;24.57;55.17;101849.25;5086265;28;20071;-59
2022/07/30 07:58:19;;;;;;;8.00;3.30;;;24.20;99.90;;;24.75;54.62;101851.13;5054148;28;20041;-59
2022/07/30 08:00:54;;;;;;;15.80;4.32;;;24.40;99.90;;;24.83;53.71;101847.13;5052760;28;20095;-60
2022/07/30 08:03:32;;;;;;;5.03;3.13;;;24.60;99.90;;;24.94;52.21;101854.69;5069780;28;20457;-59
2022/07/30 08:06:08;;;;;;;4.55;2.95;;;24.60;99.90;;;24.98;52.19;101822.00;5053118;28;20135;-60
2022/07/30 08:09:09;;;;;;;6.60;2.97;;;24.70;99.90;;;24.87;50.28;101813.50;5054139;28;20071;-59
2022/07/30 08:12:01;;;;;;;4.55;2.75;;;24.80;99.90;;;24.91;50.55;101806.97;5049566;28;20053;-59
2022/07/30 08:14:54;;;;;;;5.47;3.38;;;24.80;99.90;;;25.24;50.38;101842.34;5062107;28;20060;-59
2022/07/30 08:17:41;;;;;;;7.38;3.15;;;25.00;99.90;;;25.32;50.48;101818.47;5053909;28;20051;-59
2022/07/30 08:20:32;;;;;;;4.38;2.65;;;25.10;99.90;;;25.53;49.68;101844.53;5053334;28;20049;-58
2022/07/30 08:23:01;;;;;;;5.63;2.70;;;25.20;99.90;;;25.51;49.03;101840.16;5052706;28;20049;-59
2022/07/30 08:25:31;;;;;;;5.78;3.17;;;25.20;99.90;;;25.53;49.81;101836.38;5052667;28;20049;-58
2022/07/30 08:28:01;;;;;;;6.88;3.30;;;25.10;99.90;;;25.63;49.99;101831.38;5053847;28;20044;-58
2022/07/30 08:30:30;;;;;;;4.50;2.50;;;25.30;99.90;;;25.70;49.67;101833.72;5069352;28;20045;-59
2022/07/30 08:32:59;;;;;;;10.38;2.60;;;25.40;99.90;;;25.74;48.85;101846.16;5052801;28;20099;-60
2022/07/30 08:35:28;;;;;;;5.28;2.92;;;25.50;99.90;;;25.51;49.60;101805.78;5052633;28;20554;-64
2022/07/30 08:37:56;;;;;;;5.32;2.80;;;25.40;99.90;;;25.86;49.55;101850.91;5069029;28;20564;-59
2022/07/30 08:40:27;;;;;;;4.93;3.10;;;25.50;99.90;;;25.60;49.67;101828.84;5051978;28;20462;-61
2022/07/30 08:43:07;;;;;;;7.50;3.45;;;25.40;99.90;;;25.88;49.18;101851.72;5069157;28;20143;-60
2022/07/30 08:45:37;;;;;;;4.93;2.72;;;25.50;99.90;;;25.92;48.26;101856.03;5068940;28;20574;-59
2022/07/30 08:48:22;;;;;;;6.00;3.17;;;25.60;99.90;;;25.90;48.70;101819.09;5052322;28;20140;-61
2022/07/30 08:50:51;;;;;;;7.03;3.13;;;25.70;99.90;;;25.98;49.05;101851.25;5052120;28;20383;-61
2022/07/30 08:53:35;;;;;;;7.50;3.15;;;25.60;99.90;;;26.06;48.81;101847.19;5053459;28;20171;-61
2022/07/30 08:56:06;;;;;;;5.50;3.05;;;25.80;99.90;;;26.19;48.36;101853.72;5069104;28;20512;-61
2022/07/30 08:58:37;;;;;;;5.25;3.20;;;25.90;99.90;;;26.16;48.56;101856.59;5052947;28;20540;-60
2022/07/30 09:01:07;;;;;;;5.55;3.25;;;25.90;99.90;;;25.94;48.17;101832.41;5053043;28;20456;-59
2022/07/30 09:03:38;;;;;;;4.13;2.78;;;25.80;99.90;;;26.13;47.57;101859.47;5053031;28;20048;-59
2022/07/30 09:06:12;;;;;;;3.95;2.80;;;25.80;99.90;;;25.98;47.17;101851.25;5051810;28;20049;-59
2022/07/30 09:08:42;;;;;;;5.30;3.17;;;25.70;99.90;;;26.01;47.53;101870.97;5050889;28;20053;-59
2022/07/30 09:11:11;;;;;;;9.73;2.95;;;25.70;99.90;;;25.70;47.45;101822.00;5051683;28;20056;-59
2022/07/30 09:13:44;;;;;;;8.43;3.25;;;25.60;99.90;;;25.94;47.57;101864.06;5085256;28;20045;-60
2022/07/30 09:16:22;;;;;;;3.92;2.88;;;25.70;99.90;;;25.94;48.51;101827.00;5068627;28;20106;-60
2022/07/30 09:18:52;;;;;;;4.72;3.05;;;25.80;99.90;;;24.92;46.86;101683.31;5051747;28;20049;-62
2022/07/30 09:21:24;;;;;;;11.20;3.20;;;25.70;99.90;;;26.00;47.85;101855.63;5068630;28;20052;-60
2022/07/30 09:24:03;;;;;;;;;;;25.70;99.90;;;26.01;48.15;101859.22;5069042;28;20053;-60
2022/07/30 09:26:58;;;;;;;5.30;2.75;;;25.70;99.90;;;26.05;46.68;101839.13;5053113;28;19925;-60
2022/07/30 09:29:57;;;;;;;6.00;2.90;;;25.90;99.90;;;26.50;47.37;101861.97;5052878;28;20056;-60
2022/07/30 09:32:49;;;;;;;5.65;2.80;;;26.20;99.90;;;25.93;45.64;101799.97;5052890;28;20048;-59
2022/07/30 09:35:42;;;;;;;4.97;2.85;;;25.90;99.90;;;26.01;47.52;101835.69;5054842;28;20061;-59
2022/07/30 09:38:45;;;;;;;5.18;2.60;;;25.80;99.90;;;26.21;45.62;101843.66;5052761;28;20462;-60
2022/07/30 09:41:36;;;;;;;9.13;3.05;;;26.00;99.90;;;26.36;46.63;101841.97;5052383;28;20134;-60
2022/07/30 09:44:23;;;;;;;5.32;3.15;;;26.00;99.90;;;26.57;47.01;101849.81;5051191;28;20141;-60
2022/07/30 09:46:58;;;;;;;5.57;2.95;;;26.20;99.90;;;26.45;45.88;101809.78;5068385;28;20052;-59
2022/07/30 09:49:33;;;;;;;5.22;2.70;;;26.40;99.90;;;26.70;46.16;101850.94;5068356;28;20068;-61
2022/07/30 09:52:01;;;;;;;5.13;2.58;;;26.30;99.90;;;26.59;45.68;101801.75;5052917;28;20127;-60
2022/07/30 09:54:48;;;;;;;6.63;3.00;;;26.50;99.90;;;25.90;45.64;101668.13;5051578;28;20067;-61
2022/07/30 09:57:22;;;;;;;4.53;2.92;;;26.60;99.90;;;26.98;45.69;101809.50;5051464;28;20049;-59
2022/07/30 10:00:18;;;;;;;3.97;2.60;;;26.80;99.90;;;27.16;44.53;101835.59;5051501;28;20458;-60
2022/07/30 10:03:19;;;;;;;5.28;2.88;;;26.90;99.90;;;27.16;44.17;101832.88;5048565;28;20103;-61
2022/07/30 10:06:19;;;;;;;6.10;2.85;;;27.00;99.90;;;25.99;44.28;101623.34;5052795;28;20060;-58
2022/07/30 10:08:50;;;;;;;3.95;2.47;;;27.00;99.90;;;27.25;43.17;101836.91;5051437;28;20156;-58
2022/07/30 10:11:23;;;;;;;4.20;2.47;;;27.10;99.90;;;27.10;44.11;101852.25;5051593;28;20071;-61
2022/07/30 10:13:59;;;;;;;7.65;2.63;;;26.80;99.90;;;27.05;44.11;101867.94;5051025;28;20537;-58
2022/07/30 10:16:29;;;;;;;3.60;2.55;;;26.70;99.90;;;27.14;44.16;101861.13;5051271;28;20128;-58
2022/07/30 10:19:00;;;;;;;5.40;2.75;;;26.70;99.90;;;26.81;44.62;101855.75;5052698;28;20390;-58
2022/07/30 10:21:50;;;;;;;5.25;2.53;;;26.50;99.90;;;26.64;45.22;101855.78;5056075;28;20129;-58
2022/07/30 10:24:37;;;;;;;5.03;3.17;;;26.30;99.90;;;26.71;44.98;101857.25;5056070;28;20130;-59
2022/07/30 10:27:25;;;;;;;3.90;2.85;;;26.20;99.90;;;26.21;44.67;101773.13;5056279;28;20103;-58
2022/07/30 10:30:20;;;;;;;5.68;3.10;;;26.30;99.90;;;26.20;45.38;101763.25;5055987;28;20401;-58
2022/07/30 10:32:58;;;;;;;4.78;2.58;;;26.30;99.90;;;26.81;45.55;101852.16;5056196;28;20045;-58
2022/07/30 10:35:30;;;;;;;4.03;2.42;;;26.50;99.90;;;26.48;45.52;101782.44;5054810;28;20068;-58
2022/07/30 10:38:11;;;;;;;4.30;2.60;;;26.50;99.90;;;26.83;45.71;101842.94;5056014;28;20044;-61
2022/07/30 10:40:48;;;;;;;5.88;3.00;;;26.50;99.90;;;26.67;45.42;101796.75;5055596;28;20048;-58
2022/07/30 10:43:55;;;;;;;5.60;3.17;;;26.60;99.90;;;26.90;45.25;101857.97;5055770;28;20041;-61
2022/07/30 10:46:41;;;;;;;7.20;3.35;;;26.50;99.90;;;26.88;44.63;101840.88;5037351;28;20057;-57
2022/07/30 10:49:11;;;;;;;6.78;3.33;;;26.50;99.90;;;26.86;45.34;101837.38;5054492;28;20051;-60